createdAt,value
2019-03-28T00:01:02.066Z,8.70
2019-03-28T00:03:30.915Z,8.70
2019-03-28T00:05:58.744Z,8.70
2019-03-28T00:08:29.659Z,8.70
2019-03-28T00:10:57.483Z,8.70
2019-03-28T00:13:25.800Z,8.70
2019-03-28T00:15:56.335Z,8.70
2019-03-28T00:18:25.467Z,8.70
2019-03-28T00:20:57.067Z,8.70
2019-03-28T00:23:33.263Z,8.70
2019-03-28T00:26:05.544Z,8.80
2019-03-28T00:28:35.043Z,8.80
2019-03-28T00:31:02.900Z,8.70
2019-03-28T00:33:30.806Z,8.80
2019-03-28T00:36:02.822Z,8.80
2019-03-28T00:38:35.498Z,8.80
2019-03-28T00:41:03.532Z,8.80
2019-03-28T00:43:31.491Z,8.80
2019-03-28T00:46:01.626Z,8.80
2019-03-28T00:48:31.348Z,8.80
2019-03-28T00:51:00.162Z,8.80
2019-03-28T00:53:31.489Z,8.80
2019-03-28T00:56:00.202Z,8.80
2019-03-28T00:58:29.300Z,8.80
2019-03-28T01:00:57.182Z,8.80
2019-03-28T01:03:25.024Z,8.80
2019-03-28T01:05:53.412Z,8.80
2019-03-28T01:08:22.625Z,8.80
2019-03-28T01:10:50.602Z,8.80
2019-03-28T01:13:20.184Z,8.80
2019-03-28T01:15:49.235Z,8.80
2019-03-28T01:18:17.322Z,8.80
2019-03-28T01:20:45.250Z,8.80
2019-03-28T01:23:15.854Z,8.80
2019-03-28T01:25:45.338Z,8.80
2019-03-28T01:28:13.732Z,8.70
2019-03-28T01:30:43.424Z,8.70
2019-03-28T01:33:12.916Z,8.70
2019-03-28T01:35:42.057Z,8.70
2019-03-28T01:38:09.922Z,8.70
2019-03-28T01:40:38.137Z,8.70
2019-03-28T01:43:07.392Z,8.60
2019-03-28T01:45:36.466Z,8.60
2019-03-28T01:48:04.718Z,8.60
2019-03-28T01:50:33.888Z,8.60
2019-03-28T01:53:02.730Z,8.60
2019-03-28T01:55:31.638Z,8.60
2019-03-28T01:58:00.631Z,8.60
2019-03-28T02:00:30.904Z,8.60
2019-03-28T02:02:58.729Z,8.50
2019-03-28T02:05:26.652Z,8.50
2019-03-28T02:07:54.499Z,8.50
2019-03-28T02:10:30.749Z,8.50
2019-03-28T02:12:58.620Z,8.60
2019-03-28T02:15:28.828Z,8.60
2019-03-28T02:17:56.639Z,8.60
2019-03-28T02:20:24.520Z,8.60
2019-03-28T02:22:53.502Z,8.60
2019-03-28T02:25:21.400Z,8.60
2019-03-28T02:27:49.330Z,8.60
2019-03-28T02:30:20.842Z,8.60
2019-03-28T02:32:49.295Z,8.60
2019-03-28T02:35:17.127Z,8.60
2019-03-28T02:37:44.988Z,8.60
2019-03-28T02:40:12.831Z,8.60
2019-03-28T02:42:40.701Z,8.60
2019-03-28T02:45:08.536Z,8.60
2019-03-28T02:47:38.053Z,8.60
2019-03-28T02:50:07.854Z,8.60
2019-03-28T02:52:35.761Z,8.60
2019-03-28T02:55:04.257Z,8.60
2019-03-28T02:57:40.887Z,8.60
2019-03-28T03:00:02.403Z,8.70
2019-03-28T03:02:30.307Z,8.60
2019-03-28T03:04:58.532Z,8.70
2019-03-28T03:07:26.427Z,8.60
2019-03-28T03:09:54.415Z,8.60
2019-03-28T03:12:22.242Z,8.60
2019-03-28T03:14:50.047Z,8.60
2019-03-28T03:17:18.767Z,8.70
2019-03-28T03:19:46.601Z,8.70
2019-03-28T03:22:16.542Z,8.70
2019-03-28T03:24:47.282Z,8.70
2019-03-28T03:27:16.172Z,8.60
2019-03-28T03:29:46.966Z,8.70
2019-03-28T03:32:16.456Z,8.70
2019-03-28T03:34:44.261Z,8.70
2019-03-28T03:37:12.108Z,8.70
2019-03-28T03:39:42.820Z,8.70
2019-03-28T03:42:10.699Z,8.60
2019-03-28T03:44:38.997Z,8.60
2019-03-28T03:47:06.920Z,8.60
2019-03-28T03:49:36.168Z,8.70
2019-03-28T03:52:07.306Z,8.60
2019-03-28T03:54:35.222Z,8.60
2019-03-28T03:57:03.228Z,8.60
2019-03-28T03:59:32.783Z,8.60
2019-03-28T04:02:00.711Z,8.70
2019-03-28T04:04:30.439Z,8.60
2019-03-28T04:06:58.560Z,8.60
2019-03-28T04:09:29.168Z,8.60
2019-03-28T04:11:57.556Z,8.60
2019-03-28T04:14:26.060Z,8.60
2019-03-28T04:16:54.071Z,8.60
2019-03-28T04:19:27.567Z,8.60
2019-03-28T04:21:57.106Z,8.60
2019-03-28T04:24:25.057Z,8.60
2019-03-28T04:29:44.027Z,8.60
2019-03-28T04:32:13.154Z,8.50
2019-03-28T04:34:43.831Z,8.50
2019-03-28T04:37:12.799Z,8.50
2019-03-28T04:39:40.686Z,8.50
2019-03-28T04:42:10.235Z,8.50
2019-03-28T04:44:38.180Z,8.50
2019-03-28T04:47:07.249Z,8.50
2019-03-28T04:49:36.862Z,8.50
2019-03-28T04:52:07.203Z,8.50
2019-03-28T04:54:35.119Z,8.60
2019-03-28T04:57:03.030Z,8.60
2019-03-28T04:59:32.082Z,8.60
2019-03-28T05:02:03.739Z,8.70
2019-03-28T05:04:33.455Z,8.70
2019-03-28T05:07:01.368Z,8.70
2019-03-28T05:09:29.287Z,8.80
2019-03-28T05:11:59.419Z,8.80
2019-03-28T05:14:28.564Z,8.90
2019-03-28T05:16:57.749Z,8.80
2019-03-28T05:19:26.067Z,8.90
2019-03-28T05:21:53.971Z,8.90
2019-03-28T05:24:21.949Z,8.90
2019-03-28T05:26:49.845Z,9.00
2019-03-28T05:29:17.901Z,9.00
2019-03-28T05:31:46.398Z,9.10
2019-03-28T05:34:14.796Z,9.10
2019-03-28T05:36:42.800Z,9.20
2019-03-28T05:39:10.849Z,9.20
2019-03-28T05:41:38.723Z,9.20
2019-03-28T05:44:06.886Z,9.20
2019-03-28T05:46:36.045Z,9.20
2019-03-28T05:49:06.684Z,9.20
2019-03-28T05:51:34.891Z,9.20
2019-03-28T05:54:02.848Z,9.20
2019-03-28T05:56:31.921Z,9.30
2019-03-28T05:59:10.101Z,9.40
2019-03-28T06:01:29.320Z,9.50
2019-03-28T06:03:59.879Z,9.50
2019-03-28T06:06:27.778Z,9.60
2019-03-28T06:08:55.880Z,9.70
2019-03-28T06:11:23.979Z,9.80
2019-03-28T06:13:53.187Z,9.90
2019-03-28T06:16:22.455Z,10.00
2019-03-28T06:18:50.389Z,10.00
2019-03-28T06:21:18.259Z,10.00
2019-03-28T06:23:47.964Z,10.00
2019-03-28T06:26:15.878Z,9.90
2019-03-28T06:28:43.874Z,9.90
2019-03-28T06:31:11.693Z,10.00
2019-03-28T06:33:39.753Z,10.00
2019-03-28T06:36:10.231Z,10.10
2019-03-28T06:38:38.088Z,10.30
2019-03-28T06:41:07.463Z,10.40
2019-03-28T06:43:36.863Z,10.50
2019-03-28T06:46:04.970Z,10.60
2019-03-28T06:48:33.474Z,10.70
2019-03-28T06:51:01.554Z,10.70
2019-03-28T06:53:29.681Z,10.80
2019-03-28T06:55:57.601Z,10.80
2019-03-28T06:58:32.331Z,10.80
2019-03-28T07:01:02.060Z,10.90
2019-03-28T07:03:31.524Z,11.10
2019-03-28T07:05:59.466Z,11.10
2019-03-28T07:08:28.583Z,11.20
2019-03-28T07:10:58.178Z,11.20
2019-03-28T07:13:27.971Z,11.30
2019-03-28T07:15:55.889Z,11.40
2019-03-28T07:18:24.091Z,11.40
2019-03-28T07:20:52.438Z,11.40
2019-03-28T07:23:21.840Z,11.40
2019-03-28T07:25:50.975Z,11.40
2019-03-28T07:28:19.340Z,11.40
2019-03-28T07:30:47.945Z,11.50
2019-03-28T07:33:17.822Z,11.80
2019-03-28T07:35:45.990Z,12.00
2019-03-28T07:38:16.449Z,12.20
2019-03-28T07:40:44.507Z,12.50
2019-03-28T07:43:12.371Z,12.60
2019-03-28T07:45:40.278Z,12.70
2019-03-28T07:48:08.512Z,12.80
2019-03-28T07:50:37.647Z,13.00
2019-03-28T07:53:05.719Z,13.10
2019-03-28T07:55:33.823Z,13.30
2019-03-28T07:58:07.259Z,13.30
2019-03-28T08:00:35.514Z,13.20
2019-03-28T08:03:03.670Z,13.00
2019-03-28T08:05:31.853Z,12.80
2019-03-28T08:08:01.153Z,12.80
2019-03-28T08:10:29.107Z,12.80
2019-03-28T08:12:57.211Z,12.90
2019-03-28T08:15:26.022Z,13.10
2019-03-28T08:17:54.840Z,13.40
2019-03-28T08:20:23.440Z,13.70
2019-03-28T08:22:52.005Z,14.00
2019-03-28T08:25:21.234Z,14.30
2019-03-28T08:27:50.498Z,14.50
2019-03-28T08:30:24.215Z,14.70
2019-03-28T08:32:54.414Z,14.80
2019-03-28T08:35:23.062Z,14.90
2019-03-28T08:37:51.662Z,14.80
2019-03-28T08:40:34.748Z,14.70
2019-03-28T08:43:03.377Z,14.50
2019-03-28T08:45:32.279Z,14.40
2019-03-28T08:50:49.766Z,14.10
2019-03-28T08:53:18.105Z,13.90
2019-03-28T08:55:46.223Z,13.80
2019-03-28T08:58:14.706Z,13.80
2019-03-28T09:00:51.735Z,13.70
2019-03-28T09:03:13.275Z,13.60
2019-03-28T09:05:41.391Z,13.80
2019-03-28T09:08:10.011Z,14.00
2019-03-28T09:10:40.563Z,14.50
2019-03-28T09:13:09.367Z,14.90
2019-03-28T09:15:44.022Z,15.30
2019-03-28T09:18:14.298Z,15.50
2019-03-28T09:20:47.239Z,15.70
2019-03-28T09:23:19.076Z,15.80
2019-03-28T09:25:49.764Z,15.60
2019-03-28T09:28:19.119Z,15.40
2019-03-28T09:31:03.726Z,15.30
2019-03-28T09:33:34.049Z,15.20
2019-03-28T09:36:02.846Z,15.40
2019-03-28T09:38:33.125Z,16.00
2019-03-28T09:41:03.569Z,16.70
2019-03-28T09:43:38.169Z,17.10
2019-03-28T09:46:10.284Z,17.50
2019-03-28T09:48:42.327Z,17.60
2019-03-28T09:51:11.228Z,17.40
2019-03-28T09:53:44.068Z,17.00
2019-03-28T09:59:02.282Z,16.20
2019-03-28T10:04:21.877Z,15.40
2019-03-28T10:06:50.409Z,15.20
2019-03-28T10:09:20.086Z,15.20
2019-03-28T10:11:52.388Z,15.40
2019-03-28T10:14:22.690Z,15.60
2019-03-28T10:16:51.539Z,16.00
2019-03-28T10:19:23.273Z,16.50
2019-03-28T10:21:52.196Z,17.10
2019-03-28T10:24:21.149Z,17.70
2019-03-28T10:26:52.361Z,17.90
2019-03-28T10:29:21.651Z,18.00
2019-03-28T10:31:52.205Z,18.00
2019-03-28T10:34:21.113Z,18.10
2019-03-28T10:36:51.047Z,18.20
2019-03-28T10:39:19.584Z,18.20
2019-03-28T10:41:49.795Z,17.90
2019-03-28T10:44:18.505Z,17.60
2019-03-28T10:46:48.881Z,17.20
2019-03-28T10:49:17.457Z,17.00
2019-03-28T10:51:49.279Z,16.70
2019-03-28T10:54:20.541Z,16.50
2019-03-28T10:56:52.160Z,16.40
2019-03-28T10:59:23.609Z,16.30
2019-03-28T11:01:51.122Z,16.40
2019-03-28T11:04:22.562Z,16.50
2019-03-28T11:06:51.752Z,16.60
2019-03-28T11:09:21.063Z,16.80
2019-03-28T11:11:51.441Z,17.10
2019-03-28T11:14:21.843Z,17.30
2019-03-28T11:16:50.985Z,17.50
2019-03-28T11:19:19.763Z,17.70
2019-03-28T11:21:50.330Z,17.80
2019-03-28T11:24:18.904Z,17.80
2019-03-28T11:26:48.574Z,17.70
2019-03-28T11:29:17.140Z,17.60
2019-03-28T11:31:50.566Z,17.50
2019-03-28T11:34:16.968Z,17.30
2019-03-28T11:36:46.036Z,17.10
2019-03-28T11:39:15.037Z,17.00
2019-03-28T11:41:44.052Z,16.90
2019-03-28T11:44:14.232Z,16.90
2019-03-28T11:46:44.640Z,16.80
2019-03-28T11:49:13.596Z,16.90
2019-03-28T11:51:42.229Z,16.90
2019-03-28T11:54:24.287Z,16.90
2019-03-28T11:56:53.247Z,16.90
2019-03-28T11:59:22.856Z,17.00
2019-03-28T12:01:59.933Z,17.00
2019-03-28T12:04:22.144Z,17.00
2019-03-28T12:06:50.740Z,17.20
2019-03-28T12:09:20.157Z,17.20
2019-03-28T12:11:52.763Z,17.30
2019-03-28T12:14:20.181Z,17.40
2019-03-28T12:16:50.895Z,17.50
2019-03-28T12:19:19.792Z,17.50
2019-03-28T12:21:48.652Z,17.50
2019-03-28T12:24:23.622Z,17.70
2019-03-28T12:26:52.375Z,17.70
2019-03-28T12:29:23.781Z,17.70
2019-03-28T12:31:52.741Z,17.70
2019-03-28T12:34:21.435Z,17.70
2019-03-28T12:36:50.603Z,17.70
2019-03-28T12:39:19.450Z,17.50
2019-03-28T12:41:49.093Z,17.40
2019-03-28T12:44:17.902Z,17.40
2019-03-28T12:46:53.791Z,17.40
2019-03-28T12:49:25.349Z,17.40
2019-03-28T12:51:56.968Z,17.30
2019-03-28T12:54:25.622Z,17.20
2019-03-28T12:56:58.163Z,17.00
2019-03-28T12:59:26.418Z,16.90
2019-03-28T13:01:55.230Z,16.80
2019-03-28T13:04:24.427Z,16.70
2019-03-28T13:06:53.235Z,16.60
2019-03-28T13:09:23.563Z,16.50
2019-03-28T13:11:52.677Z,16.50
2019-03-28T13:14:26.412Z,16.40
2019-03-28T13:16:54.980Z,16.30
2019-03-28T13:19:22.925Z,16.40
2019-03-28T13:21:51.696Z,16.40
2019-03-28T13:24:22.502Z,16.40
2019-03-28T13:26:51.320Z,16.30
2019-03-28T13:29:20.330Z,16.30
2019-03-28T13:31:49.448Z,16.30
2019-03-28T13:34:19.141Z,16.20
2019-03-28T13:36:49.244Z,16.20
2019-03-28T13:39:19.171Z,16.30
2019-03-28T13:41:50.275Z,16.30
2019-03-28T13:44:20.178Z,16.30
2019-03-28T13:46:49.559Z,16.20
2019-03-28T13:49:18.450Z,16.10
2019-03-28T13:51:50.226Z,16.10
2019-03-28T13:54:23.022Z,16.10
2019-03-28T13:56:50.598Z,16.10
2019-03-28T13:59:18.667Z,16.10
2019-03-28T14:01:47.261Z,16.00
2019-03-28T14:04:15.628Z,16.00
2019-03-28T14:06:43.800Z,16.00
2019-03-28T14:09:13.615Z,16.00
2019-03-28T14:11:43.883Z,16.00
2019-03-28T14:14:13.455Z,16.10
2019-03-28T14:16:41.642Z,16.10
2019-03-28T14:19:11.348Z,16.10
2019-03-28T14:21:41.114Z,16.20
2019-03-28T14:24:11.586Z,16.20
2019-03-28T14:26:40.420Z,16.10
2019-03-28T14:29:08.674Z,16.10
2019-03-28T14:31:38.156Z,16.10
2019-03-28T14:34:07.793Z,16.10
2019-03-28T14:36:36.016Z,16.10
2019-03-28T14:39:07.117Z,16.10
2019-03-28T14:41:35.485Z,16.10
2019-03-28T14:44:03.402Z,16.10
2019-03-28T14:46:31.382Z,16.00
2019-03-28T14:49:00.651Z,16.00
2019-03-28T14:51:28.938Z,15.90
2019-03-28T14:53:58.959Z,15.90
2019-03-28T14:56:29.587Z,15.80
2019-03-28T14:58:58.527Z,15.70
2019-03-28T15:01:26.982Z,15.60
2019-03-28T15:03:55.155Z,15.40
2019-03-28T15:06:24.588Z,15.40
2019-03-28T15:08:53.052Z,15.30
2019-03-28T15:11:21.361Z,15.20
2019-03-28T15:13:49.492Z,15.10
2019-03-28T15:16:17.654Z,14.90
2019-03-28T15:18:45.614Z,14.80
2019-03-28T15:21:14.305Z,14.60
2019-03-28T15:23:42.521Z,14.50
2019-03-28T15:26:10.697Z,14.40
2019-03-28T15:28:38.647Z,14.30
2019-03-28T15:31:08.311Z,14.20
2019-03-28T15:33:39.771Z,14.20
2019-03-28T15:36:06.408Z,14.10
2019-03-28T15:38:36.503Z,14.00
2019-03-28T15:41:04.729Z,14.00
2019-03-28T15:43:33.330Z,13.90
2019-03-28T15:46:01.345Z,13.70
2019-03-28T15:48:30.690Z,13.70
2019-03-28T15:50:58.975Z,13.60
2019-03-28T15:53:27.114Z,13.50
2019-03-28T15:55:55.366Z,13.40
2019-03-28T15:58:23.972Z,13.40
2019-03-28T16:00:52.093Z,13.30
2019-03-28T16:03:21.976Z,13.30
2019-03-28T16:05:57.970Z,13.30
2019-03-28T16:08:19.716Z,13.30
2019-03-28T16:10:47.781Z,13.30
2019-03-28T16:13:17.503Z,13.30
2019-03-28T16:15:45.597Z,13.30
2019-03-28T16:18:13.788Z,13.30
2019-03-28T16:20:42.098Z,13.30
2019-03-28T16:23:10.111Z,13.30
2019-03-28T16:25:38.367Z,13.30
2019-03-28T16:28:06.589Z,13.40
2019-03-28T16:30:36.814Z,13.40
2019-03-28T16:33:08.249Z,13.40
2019-03-28T16:35:36.354Z,13.40
2019-03-28T16:38:04.692Z,13.30
2019-03-28T16:40:32.829Z,13.20
2019-03-28T16:43:01.164Z,13.20
2019-03-28T16:45:29.622Z,13.00
2019-03-28T16:47:57.684Z,12.90
2019-03-28T16:50:27.799Z,12.90
2019-03-28T16:52:57.262Z,12.80
2019-03-28T16:55:26.439Z,12.70
2019-03-28T16:57:54.882Z,12.70
2019-03-28T17:00:24.633Z,12.60
2019-03-28T17:02:52.624Z,12.60
2019-03-28T17:05:20.824Z,12.60
2019-03-28T17:07:49.329Z,12.50
2019-03-28T17:10:19.084Z,12.40
2019-03-28T17:12:47.355Z,12.40
2019-03-28T17:15:15.535Z,12.40
2019-03-28T17:17:43.907Z,12.40
2019-03-28T17:20:12.144Z,12.30
2019-03-28T17:22:40.381Z,12.30
2019-03-28T17:25:09.804Z,12.30
2019-03-28T17:27:38.041Z,12.20
2019-03-28T17:30:07.319Z,12.20
2019-03-28T17:32:36.911Z,12.20
2019-03-28T17:35:05.438Z,12.10
2019-03-28T17:37:33.576Z,12.20
2019-03-28T17:40:01.984Z,12.10
2019-03-28T17:42:30.658Z,12.10
2019-03-28T17:44:59.607Z,12.10
2019-03-28T17:47:27.983Z,12.00
2019-03-28T17:49:56.794Z,12.00
2019-03-28T17:52:24.859Z,12.00
2019-03-28T17:54:53.887Z,11.90
2019-03-28T17:57:23.252Z,11.90
2019-03-28T17:59:51.751Z,11.80
2019-03-28T18:02:19.968Z,11.80
2019-03-28T18:04:51.094Z,11.70
2019-03-28T18:07:19.505Z,11.80
2019-03-28T18:09:48.197Z,11.70
2019-03-28T18:12:16.689Z,11.70
2019-03-28T18:14:45.055Z,11.70
2019-03-28T18:17:13.286Z,11.80
2019-03-28T18:19:41.984Z,11.80
2019-03-28T18:22:10.481Z,11.80
2019-03-28T18:24:39.302Z,11.80
2019-03-28T18:27:07.543Z,11.80
2019-03-28T18:29:36.024Z,11.80
2019-03-28T18:32:04.853Z,11.80
2019-03-28T18:34:32.885Z,11.80
2019-03-28T18:37:01.499Z,11.80
2019-03-28T18:39:29.821Z,11.70
2019-03-28T18:41:57.996Z,11.70
2019-03-28T18:44:26.330Z,11.70
2019-03-28T18:46:54.716Z,11.70
2019-03-28T18:49:22.860Z,11.70
2019-03-28T18:51:51.062Z,11.60
2019-03-28T18:54:20.364Z,11.60
2019-03-28T18:56:48.708Z,11.50
2019-03-28T18:59:19.137Z,11.50
2019-03-28T19:01:47.491Z,11.40
2019-03-28T19:04:15.772Z,11.30
2019-03-28T19:06:44.013Z,11.30
2019-03-28T19:09:12.430Z,11.20
2019-03-28T19:11:41.329Z,11.20
2019-03-28T19:14:09.478Z,11.10
2019-03-28T19:16:37.841Z,11.00
2019-03-28T19:19:06.024Z,11.00
2019-03-28T19:21:34.135Z,10.90
2019-03-28T19:24:02.291Z,10.90
2019-03-28T19:26:30.758Z,10.80
2019-03-28T19:28:59.597Z,10.70
2019-03-28T19:31:27.716Z,10.70
2019-03-28T19:33:55.862Z,10.60
2019-03-28T19:36:24.257Z,10.50
2019-03-28T19:38:52.475Z,10.40
2019-03-28T19:41:20.846Z,10.30
2019-03-28T19:43:49.840Z,10.20
2019-03-28T19:46:18.133Z,10.10
2019-03-28T19:48:46.907Z,10.00
2019-03-28T19:51:15.232Z,9.90
2019-03-28T19:53:43.996Z,9.80
2019-03-28T19:56:12.656Z,9.70
2019-03-28T19:58:40.934Z,9.60
2019-03-28T20:01:09.782Z,9.50
2019-03-28T20:03:38.184Z,9.50
2019-03-28T20:06:06.417Z,9.40
2019-03-28T20:08:34.612Z,9.40
2019-03-28T20:11:02.754Z,9.30
2019-03-28T20:13:31.138Z,9.20
2019-03-28T20:16:01.870Z,9.30
2019-03-28T20:18:30.152Z,9.30
2019-03-28T20:20:58.099Z,9.30
2019-03-28T20:23:26.129Z,9.50
2019-03-28T20:25:53.966Z,9.50
2019-03-28T20:28:21.876Z,9.60
2019-03-28T20:30:50.111Z,9.70
2019-03-28T20:33:18.902Z,9.80
2019-03-28T20:36:00.515Z,9.90
2019-03-28T20:38:16.410Z,9.90
2019-03-28T20:40:44.350Z,9.90
2019-03-28T20:43:12.294Z,9.90
2019-03-28T20:45:40.288Z,10.00
2019-03-28T20:48:08.567Z,10.00
2019-03-28T20:50:36.527Z,10.00
2019-03-28T20:53:04.752Z,9.90
2019-03-28T20:55:32.724Z,9.90
2019-03-28T20:58:00.630Z,9.90
2019-03-28T21:00:33.075Z,9.90
2019-03-28T21:03:03.185Z,9.90
2019-03-28T21:05:30.601Z,9.90
2019-03-28T21:07:58.567Z,9.90
2019-03-28T21:10:26.511Z,9.90
2019-03-28T21:12:54.479Z,9.90
2019-03-28T21:15:22.345Z,9.90
2019-03-28T21:17:50.235Z,9.80
2019-03-28T21:20:18.281Z,9.80
2019-03-28T21:22:46.752Z,9.80
2019-03-28T21:25:14.858Z,9.80
2019-03-28T21:27:42.757Z,9.90
2019-03-28T21:30:12.230Z,9.90
2019-03-28T21:32:40.137Z,9.90
2019-03-28T21:35:08.335Z,9.90
2019-03-28T21:37:38.153Z,9.90
2019-03-28T21:40:06.299Z,9.90
2019-03-28T21:42:34.371Z,9.90
2019-03-28T21:45:02.458Z,10.00
2019-03-28T21:47:30.535Z,10.00
2019-03-28T21:49:59.486Z,10.00
2019-03-28T21:52:27.614Z,10.00
2019-03-28T21:54:57.072Z,10.00
2019-03-28T21:57:25.005Z,10.10
2019-03-28T21:59:52.947Z,10.00
2019-03-28T22:02:20.810Z,10.00
2019-03-28T22:04:48.708Z,10.00
2019-03-28T22:07:16.661Z,10.00
2019-03-28T22:09:44.637Z,10.00
2019-03-28T22:12:12.544Z,10.00
2019-03-28T22:14:43.556Z,10.00
2019-03-28T22:17:11.632Z,9.90
2019-03-28T22:19:39.978Z,9.90
2019-03-28T22:22:08.092Z,9.90
2019-03-28T22:24:38.845Z,9.80
2019-03-28T22:27:05.444Z,9.80
2019-03-28T22:29:33.706Z,9.70
2019-03-28T22:32:02.039Z,9.60
2019-03-28T22:34:30.232Z,9.60
2019-03-28T22:36:59.931Z,9.60
2019-03-28T22:39:28.241Z,9.60
2019-03-28T22:41:56.316Z,9.60
2019-03-28T22:44:24.976Z,9.60
2019-03-28T22:46:55.253Z,9.60
2019-03-28T22:49:23.110Z,9.60
2019-03-28T22:51:52.822Z,9.60
2019-03-28T22:54:20.702Z,9.60
2019-03-28T22:56:49.903Z,9.60
2019-03-28T22:59:18.082Z,9.70
2019-03-28T23:01:46.054Z,9.70
2019-03-28T23:04:14.208Z,9.70
2019-03-28T23:06:42.131Z,9.70
2019-03-28T23:09:10.176Z,9.70
2019-03-28T23:11:40.530Z,9.70
2019-03-28T23:14:07.546Z,9.70
2019-03-28T23:16:35.502Z,9.80
2019-03-28T23:19:03.399Z,9.80
2019-03-28T23:21:31.761Z,9.80
2019-03-28T23:24:00.139Z,9.90
2019-03-28T23:26:27.999Z,9.80
2019-03-28T23:28:57.403Z,9.80
2019-03-28T23:31:25.259Z,9.90
2019-03-28T23:33:53.226Z,9.90
2019-03-28T23:36:21.095Z,9.90
2019-03-28T23:38:49.156Z,9.90
2019-03-28T23:41:17.183Z,9.80
2019-03-28T23:43:45.028Z,9.80
2019-03-28T23:46:12.897Z,9.80
2019-03-28T23:48:40.793Z,9.80
2019-03-28T23:51:08.961Z,9.80
2019-03-28T23:53:36.942Z,9.80
2019-03-28T23:56:05.028Z,9.80
2019-03-28T23:58:32.912Z,9.80
